sensor_id;sensor_type;location;lat;lon;timestamp;P1;durP1;ratioP1;P2;durP2;ratioP2
42364;SDS011;28498;54.400;18.566;2022-07-23T00:01:39;22.02;;;14.10;;
42364;SDS011;28498;54.400;18.566;2022-07-23T00:04:07;20.98;;;13.40;;
42364;SDS011;28498;54.400;18.566;2022-07-23T00:06:34;23.63;;;15.35;;
42364;SDS011;28498;54.400;18.566;2022-07-23T00:09:01;25.85;;;16.05;;
42364;SDS011;28498;54.400;18.566;2022-07-23T00:11:29;27.33;;;16.92;;
42364;SDS011;28498;54.400;18.566;2022-07-23T00:13:56;28.65;;;17.67;;
42364;SDS011;28498;54.400;18.566;2022-07-23T00:16:24;29.48;;;18.17;;
42364;SDS011;28498;54.400;18.566;2022-07-23T00:18:51;31.33;;;18.45;;
42364;SDS011;28498;54.400;18.566;2022-07-23T00:21:18;29.00;;;18.15;;
42364;SDS011;28498;54.400;18.566;2022-07-23T00:23:45;30.50;;;16.80;;
42364;SDS011;28498;54.400;18.566;2022-07-23T00:26:12;29.55;;;16.80;;
42364;SDS011;28498;54.400;18.566;2022-07-23T00:28:39;28.25;;;16.10;;
42364;SDS011;28498;54.400;18.566;2022-07-23T00:31:06;27.25;;;16.05;;
42364;SDS011;28498;54.400;18.566;2022-07-23T00:33:33;25.25;;;15.13;;
42364;SDS011;28498;54.400;18.566;2022-07-23T00:36:00;24.73;;;15.48;;
42364;SDS011;28498;54.400;18.566;2022-07-23T00:38:27;28.58;;;15.88;;
42364;SDS011;28498;54.400;18.566;2022-07-23T00:40:54;26.40;;;15.15;;
42364;SDS011;28498;54.400;18.566;2022-07-23T00:43:21;31.17;;;18.33;;
42364;SDS011;28498;54.400;18.566;2022-07-23T00:45:49;30.00;;;17.83;;
42364;SDS011;28498;54.400;18.566;2022-07-23T00:48:17;25.73;;;15.75;;
42364;SDS011;28498;54.400;18.566;2022-07-23T00:50:44;25.13;;;17.27;;
42364;SDS011;28498;54.400;18.566;2022-07-23T00:53:11;29.17;;;18.40;;
42364;SDS011;28498;54.400;18.566;2022-07-23T00:55:38;26.92;;;17.45;;
42364;SDS011;28498;54.400;18.566;2022-07-23T00:58:06;26.05;;;16.33;;
42364;SDS011;28498;54.400;18.566;2022-07-23T01:00:33;26.27;;;17.00;;
42364;SDS011;28498;54.400;18.566;2022-07-23T01:03:00;26.90;;;17.08;;
42364;SDS011;28498;54.400;18.566;2022-07-23T01:05:27;26.85;;;18.00;;
42364;SDS011;28498;54.400;18.566;2022-07-23T01:07:54;27.83;;;17.95;;
42364;SDS011;28498;54.400;18.566;2022-07-23T01:10:22;28.58;;;18.30;;
42364;SDS011;28498;54.400;18.566;2022-07-23T01:13:03;29.38;;;18.23;;
42364;SDS011;28498;54.400;18.566;2022-07-23T01:15:34;27.77;;;17.38;;
42364;SDS011;28498;54.400;18.566;2022-07-23T01:18:04;22.60;;;15.98;;
42364;SDS011;28498;54.400;18.566;2022-07-23T01:20:32;27.00;;;14.02;;
42364;SDS011;28498;54.400;18.566;2022-07-23T01:22:59;21.25;;;14.32;;
42364;SDS011;28498;54.400;18.566;2022-07-23T01:25:26;22.08;;;12.48;;
42364;SDS011;28498;54.400;18.566;2022-07-23T01:27:53;21.35;;;13.13;;
42364;SDS011;28498;54.400;18.566;2022-07-23T01:30:21;20.10;;;12.85;;
42364;SDS011;28498;54.400;18.566;2022-07-23T01:32:47;19.25;;;13.25;;
42364;SDS011;28498;54.400;18.566;2022-07-23T01:35:14;17.83;;;12.60;;
42364;SDS011;28498;54.400;18.566;2022-07-23T01:37:42;19.88;;;12.80;;
42364;SDS011;28498;54.400;18.566;2022-07-23T01:40:08;20.67;;;12.65;;
42364;SDS011;28498;54.400;18.566;2022-07-23T01:42:36;21.85;;;12.82;;
42364;SDS011;28498;54.400;18.566;2022-07-23T01:45:04;21.75;;;12.60;;
42364;SDS011;28498;54.400;18.566;2022-07-23T01:47:32;19.70;;;12.40;;
42364;SDS011;28498;54.400;18.566;2022-07-23T01:49:59;19.45;;;12.98;;
42364;SDS011;28498;54.400;18.566;2022-07-23T01:52:26;23.08;;;12.48;;
42364;SDS011;28498;54.400;18.566;2022-07-23T01:54:53;21.65;;;12.52;;
42364;SDS011;28498;54.400;18.566;2022-07-23T01:57:19;18.40;;;11.68;;
42364;SDS011;28498;54.400;18.566;2022-07-23T01:59:47;21.83;;;12.35;;
42364;SDS011;28498;54.400;18.566;2022-07-23T02:02:13;24.17;;;14.13;;
42364;SDS011;28498;54.400;18.566;2022-07-23T02:04:41;24.08;;;13.15;;
42364;SDS011;28498;54.400;18.566;2022-07-23T02:07:07;20.52;;;12.25;;
42364;SDS011;28498;54.400;18.566;2022-07-23T02:09:34;20.05;;;12.75;;
42364;SDS011;28498;54.400;18.566;2022-07-23T02:12:01;23.52;;;13.60;;
42364;SDS011;28498;54.400;18.566;2022-07-23T02:14:29;22.80;;;13.18;;
42364;SDS011;28498;54.400;18.566;2022-07-23T02:16:57;24.75;;;14.95;;
42364;SDS011;28498;54.400;18.566;2022-07-23T02:19:24;23.45;;;14.10;;
42364;SDS011;28498;54.400;18.566;2022-07-23T02:21:51;24.40;;;14.85;;
42364;SDS011;28498;54.400;18.566;2022-07-23T02:24:21;25.77;;;14.45;;
42364;SDS011;28498;54.400;18.566;2022-07-23T02:26:48;24.45;;;14.40;;
42364;SDS011;28498;54.400;18.566;2022-07-23T02:29:15;25.85;;;14.52;;
42364;SDS011;28498;54.400;18.566;2022-07-23T02:31:42;23.70;;;15.40;;
42364;SDS011;28498;54.400;18.566;2022-07-23T02:34:09;25.40;;;13.15;;
42364;SDS011;28498;54.400;18.566;2022-07-23T02:36:38;21.90;;;14.50;;
42364;SDS011;28498;54.400;18.566;2022-07-23T02:39:06;21.50;;;12.60;;
42364;SDS011;28498;54.400;18.566;2022-07-23T02:41:33;21.85;;;13.52;;
42364;SDS011;28498;54.400;18.566;2022-07-23T02:44:00;22.48;;;11.52;;
42364;SDS011;28498;54.400;18.566;2022-07-23T02:46:27;21.60;;;11.98;;
42364;SDS011;28498;54.400;18.566;2022-07-23T02:48:54;18.10;;;12.35;;
42364;SDS011;28498;54.400;18.566;2022-07-23T02:51:21;23.83;;;13.18;;
42364;SDS011;28498;54.400;18.566;2022-07-23T02:53:48;21.45;;;11.73;;
42364;SDS011;28498;54.400;18.566;2022-07-23T02:56:15;17.27;;;11.82;;
42364;SDS011;28498;54.400;18.566;2022-07-23T02:58:42;19.23;;;12.25;;
42364;SDS011;28498;54.400;18.566;2022-07-23T03:01:09;21.67;;;12.63;;
42364;SDS011;28498;54.400;18.566;2022-07-23T03:03:36;17.25;;;11.23;;
42364;SDS011;28498;54.400;18.566;2022-07-23T03:06:03;18.27;;;11.05;;
42364;SDS011;28498;54.400;18.566;2022-07-23T03:08:30;16.60;;;10.82;;
42364;SDS011;28498;54.400;18.566;2022-07-23T03:10:57;21.13;;;11.75;;
42364;SDS011;28498;54.400;18.566;2022-07-23T03:13:24;15.75;;;10.93;;
42364;SDS011;28498;54.400;18.566;2022-07-23T03:15:51;22.80;;;11.52;;
42364;SDS011;28498;54.400;18.566;2022-07-23T03:18:18;15.70;;;10.52;;
42364;SDS011;28498;54.400;18.566;2022-07-23T03:20:45;16.45;;;10.57;;
42364;SDS011;28498;54.400;18.566;2022-07-23T03:23:11;17.45;;;10.93;;
42364;SDS011;28498;54.400;18.566;2022-07-23T03:25:38;14.82;;;8.93;;
42364;SDS011;28498;54.400;18.566;2022-07-23T03:28:05;15.02;;;9.15;;
42364;SDS011;28498;54.400;18.566;2022-07-23T03:30:32;18.50;;;9.20;;
42364;SDS011;28498;54.400;18.566;2022-07-23T03:32:59;12.00;;;7.93;;
42364;SDS011;28498;54.400;18.566;2022-07-23T03:35:26;13.40;;;8.40;;
42364;SDS011;28498;54.400;18.566;2022-07-23T03:37:53;11.77;;;8.95;;
42364;SDS011;28498;54.400;18.566;2022-07-23T03:40:20;12.18;;;8.40;;
42364;SDS011;28498;54.400;18.566;2022-07-23T03:42:47;13.13;;;7.95;;
42364;SDS011;28498;54.400;18.566;2022-07-23T03:45:14;12.80;;;8.15;;
42364;SDS011;28498;54.400;18.566;2022-07-23T03:47:41;11.88;;;7.85;;
42364;SDS011;28498;54.400;18.566;2022-07-23T03:50:09;11.85;;;7.57;;
42364;SDS011;28498;54.400;18.566;2022-07-23T03:52:36;12.25;;;8.35;;
42364;SDS011;28498;54.400;18.566;2022-07-23T03:55:03;13.02;;;7.72;;
42364;SDS011;28498;54.400;18.566;2022-07-23T03:57:31;12.20;;;7.57;;
42364;SDS011;28498;54.400;18.566;2022-07-23T03:59:58;11.60;;;7.30;;
42364;SDS011;28498;54.400;18.566;2022-07-23T04:02:25;11.30;;;7.93;;
42364;SDS011;28498;54.400;18.566;2022-07-23T04:04:52;11.90;;;7.00;;
42364;SDS011;28498;54.400;18.566;2022-07-23T04:07:19;11.30;;;7.90;;
42364;SDS011;28498;54.400;18.566;2022-07-23T04:09:46;12.50;;;7.40;;
42364;SDS011;28498;54.400;18.566;2022-07-23T04:12:13;12.48;;;7.20;;
42364;SDS011;28498;54.400;18.566;2022-07-23T04:14:40;11.18;;;6.75;;
42364;SDS011;28498;54.400;18.566;2022-07-23T04:17:07;11.32;;;6.90;;
42364;SDS011;28498;54.400;18.566;2022-07-23T04:19:34;8.75;;;5.95;;
42364;SDS011;28498;54.400;18.566;2022-07-23T04:22:06;8.93;;;6.05;;
42364;SDS011;28498;54.400;18.566;2022-07-23T04:24:34;12.43;;;6.68;;
42364;SDS011;28498;54.400;18.566;2022-07-23T04:27:01;8.13;;;5.72;;
42364;SDS011;28498;54.400;18.566;2022-07-23T04:29:28;9.30;;;6.45;;
42364;SDS011;28498;54.400;18.566;2022-07-23T04:31:55;10.23;;;6.07;;
42364;SDS011;28498;54.400;18.566;2022-07-23T04:34:22;11.48;;;7.10;;
42364;SDS011;28498;54.400;18.566;2022-07-23T04:36:50;11.48;;;6.63;;
42364;SDS011;28498;54.400;18.566;2022-07-23T04:39:17;10.45;;;6.57;;
42364;SDS011;28498;54.400;18.566;2022-07-23T04:41:44;10.15;;;6.30;;
42364;SDS011;28498;54.400;18.566;2022-07-23T04:44:11;9.52;;;6.57;;
42364;SDS011;28498;54.400;18.566;2022-07-23T04:46:37;10.73;;;6.88;;
42364;SDS011;28498;54.400;18.566;2022-07-23T04:49:04;9.82;;;6.63;;
42364;SDS011;28498;54.400;18.566;2022-07-23T04:51:32;8.75;;;6.28;;
42364;SDS011;28498;54.400;18.566;2022-07-23T04:53:59;11.10;;;6.93;;
42364;SDS011;28498;54.400;18.566;2022-07-23T04:56:26;10.55;;;7.10;;
42364;SDS011;28498;54.400;18.566;2022-07-23T04:58:53;12.85;;;7.18;;
42364;SDS011;28498;54.400;18.566;2022-07-23T05:01:20;12.73;;;7.53;;
42364;SDS011;28498;54.400;18.566;2022-07-23T05:03:47;12.73;;;7.05;;
42364;SDS011;28498;54.400;18.566;2022-07-23T05:06:15;13.23;;;6.63;;
42364;SDS011;28498;54.400;18.566;2022-07-23T05:08:42;10.85;;;6.72;;
42364;SDS011;28498;54.400;18.566;2022-07-23T05:11:09;13.13;;;7.32;;
42364;SDS011;28498;54.400;18.566;2022-07-23T05:13:36;10.30;;;7.10;;
42364;SDS011;28498;54.400;18.566;2022-07-23T05:16:03;11.90;;;7.45;;
42364;SDS011;28498;54.400;18.566;2022-07-23T05:18:30;11.75;;;6.70;;
42364;SDS011;28498;54.400;18.566;2022-07-23T05:20:57;13.43;;;6.35;;
42364;SDS011;28498;54.400;18.566;2022-07-23T05:23:24;13.57;;;6.53;;
42364;SDS011;28498;54.400;18.566;2022-07-23T05:25:51;11.10;;;6.63;;
42364;SDS011;28498;54.400;18.566;2022-07-23T05:28:17;12.40;;;6.65;;
42364;SDS011;28498;54.400;18.566;2022-07-23T05:30:47;11.95;;;6.63;;
42364;SDS011;28498;54.400;18.566;2022-07-23T05:33:15;11.65;;;6.78;;
42364;SDS011;28498;54.400;18.566;2022-07-23T05:35:44;14.98;;;6.10;;
42364;SDS011;28498;54.400;18.566;2022-07-23T05:38:11;11.80;;;5.72;;
42364;SDS011;28498;54.400;18.566;2022-07-23T05:40:38;11.20;;;5.47;;
42364;SDS011;28498;54.400;18.566;2022-07-23T05:43:04;12.07;;;5.63;;
42364;SDS011;28498;54.400;18.566;2022-07-23T05:45:31;11.75;;;6.20;;
42364;SDS011;28498;54.400;18.566;2022-07-23T05:47:58;11.82;;;5.38;;
42364;SDS011;28498;54.400;18.566;2022-07-23T05:50:25;8.52;;;5.15;;
42364;SDS011;28498;54.400;18.566;2022-07-23T05:52:52;9.93;;;4.88;;
42364;SDS011;28498;54.400;18.566;2022-07-23T05:55:19;7.57;;;5.82;;
42364;SDS011;28498;54.400;18.566;2022-07-23T05:57:46;12.32;;;4.97;;
42364;SDS011;28498;54.400;18.566;2022-07-23T06:00:13;10.10;;;4.88;;
42364;SDS011;28498;54.400;18.566;2022-07-23T06:02:40;13.68;;;5.72;;
42364;SDS011;28498;54.400;18.566;2022-07-23T06:05:07;8.68;;;5.57;;
42364;SDS011;28498;54.400;18.566;2022-07-23T06:07:35;8.38;;;4.88;;
42364;SDS011;28498;54.400;18.566;2022-07-23T06:10:03;11.20;;;5.07;;
42364;SDS011;28498;54.400;18.566;2022-07-23T06:12:30;11.35;;;5.35;;
42364;SDS011;28498;54.400;18.566;2022-07-23T06:14:57;8.07;;;4.75;;
42364;SDS011;28498;54.400;18.566;2022-07-23T06:17:24;9.38;;;5.35;;
42364;SDS011;28498;54.400;18.566;2022-07-23T06:19:52;7.97;;;4.93;;
42364;SDS011;28498;54.400;18.566;2022-07-23T06:22:19;8.07;;;4.57;;
42364;SDS011;28498;54.400;18.566;2022-07-23T06:24:46;9.98;;;5.28;;
42364;SDS011;28498;54.400;18.566;2022-07-23T06:27:14;9.88;;;5.05;;
42364;SDS011;28498;54.400;18.566;2022-07-23T06:29:41;10.32;;;5.57;;
42364;SDS011;28498;54.400;18.566;2022-07-23T06:32:08;7.80;;;4.68;;
42364;SDS011;28498;54.400;18.566;2022-07-23T06:34:35;11.85;;;5.55;;
42364;SDS011;28498;54.400;18.566;2022-07-23T06:37:02;10.52;;;5.30;;
42364;SDS011;28498;54.400;18.566;2022-07-23T06:39:29;8.45;;;4.72;;
42364;SDS011;28498;54.400;18.566;2022-07-23T06:41:56;9.07;;;4.82;;
42364;SDS011;28498;54.400;18.566;2022-07-23T06:44:26;10.45;;;5.05;;
42364;SDS011;28498;54.400;18.566;2022-07-23T06:46:53;10.43;;;4.97;;
42364;SDS011;28498;54.400;18.566;2022-07-23T06:49:20;11.18;;;6.22;;
42364;SDS011;28498;54.400;18.566;2022-07-23T06:51:47;7.45;;;4.80;;
42364;SDS011;28498;54.400;18.566;2022-07-23T06:54:14;9.10;;;5.22;;
42364;SDS011;28498;54.400;18.566;2022-07-23T06:56:41;8.60;;;5.03;;
42364;SDS011;28498;54.400;18.566;2022-07-23T06:59:09;11.80;;;4.53;;
42364;SDS011;28498;54.400;18.566;2022-07-23T07:01:37;9.02;;;4.57;;
42364;SDS011;28498;54.400;18.566;2022-07-23T07:04:04;8.82;;;5.00;;
42364;SDS011;28498;54.400;18.566;2022-07-23T07:06:31;8.45;;;4.45;;
42364;SDS011;28498;54.400;18.566;2022-07-23T07:08:58;7.47;;;4.53;;
42364;SDS011;28498;54.400;18.566;2022-07-23T07:11:25;10.70;;;5.15;;
42364;SDS011;28498;54.400;18.566;2022-07-23T07:13:52;6.65;;;4.60;;
42364;SDS011;28498;54.400;18.566;2022-07-23T07:16:19;8.43;;;4.80;;
42364;SDS011;28498;54.400;18.566;2022-07-23T07:18:46;7.05;;;4.63;;
42364;SDS011;28498;54.400;18.566;2022-07-23T07:21:13;10.60;;;4.53;;
42364;SDS011;28498;54.400;18.566;2022-07-23T07:23:40;8.15;;;5.07;;
42364;SDS011;28498;54.400;18.566;2022-07-23T07:26:07;7.82;;;4.68;;
42364;SDS011;28498;54.400;18.566;2022-07-23T07:28:35;8.30;;;4.60;;
42364;SDS011;28498;54.400;18.566;2022-07-23T07:31:02;9.38;;;4.68;;
42364;SDS011;28498;54.400;18.566;2022-07-23T07:33:29;9.63;;;4.63;;
42364;SDS011;28498;54.400;18.566;2022-07-23T07:35:56;9.52;;;4.63;;
42364;SDS011;28498;54.400;18.566;2022-07-23T07:38:23;8.30;;;4.80;;
42364;SDS011;28498;54.400;18.566;2022-07-23T07:40:50;8.57;;;5.68;;
42364;SDS011;28498;54.400;18.566;2022-07-23T07:43:17;7.70;;;5.30;;
42364;SDS011;28498;54.400;18.566;2022-07-23T07:45:44;8.27;;;4.55;;
42364;SDS011;28498;54.400;18.566;2022-07-23T07:48:11;7.95;;;5.35;;
42364;SDS011;28498;54.400;18.566;2022-07-23T07:50:38;7.60;;;5.10;;
42364;SDS011;28498;54.400;18.566;2022-07-23T07:53:05;9.55;;;5.55;;
42364;SDS011;28498;54.400;18.566;2022-07-23T07:55:32;7.57;;;4.75;;
42364;SDS011;28498;54.400;18.566;2022-07-23T07:57:59;8.20;;;5.18;;
42364;SDS011;28498;54.400;18.566;2022-07-23T08:00:27;7.07;;;5.03;;
42364;SDS011;28498;54.400;18.566;2022-07-23T08:02:56;7.43;;;5.07;;
42364;SDS011;28498;54.400;18.566;2022-07-23T08:05:26;8.75;;;5.53;;
42364;SDS011;28498;54.400;18.566;2022-07-23T08:07:55;7.13;;;4.68;;
42364;SDS011;28498;54.400;18.566;2022-07-23T08:10:23;8.60;;;5.30;;
42364;SDS011;28498;54.400;18.566;2022-07-23T08:12:52;7.68;;;4.95;;
42364;SDS011;28498;54.400;18.566;2022-07-23T08:15:21;9.55;;;4.93;;
42364;SDS011;28498;54.400;18.566;2022-07-23T08:17:49;8.98;;;5.70;;
42364;SDS011;28498;54.400;18.566;2022-07-23T08:20:17;11.88;;;5.10;;
42364;SDS011;28498;54.400;18.566;2022-07-23T08:22:56;8.68;;;5.05;;
42364;SDS011;28498;54.400;18.566;2022-07-23T08:25:33;7.63;;;5.40;;
42364;SDS011;28498;54.400;18.566;2022-07-23T08:28:02;5.70;;;5.00;;
42364;SDS011;28498;54.400;18.566;2022-07-23T08:30:30;8.05;;;5.88;;
42364;SDS011;28498;54.400;18.566;2022-07-23T08:32:59;7.65;;;5.18;;
42364;SDS011;28498;54.400;18.566;2022-07-23T08:35:56;8.27;;;5.75;;
42364;SDS011;28498;54.400;18.566;2022-07-23T08:38:23;10.32;;;5.50;;
42364;SDS011;28498;54.400;18.566;2022-07-23T08:40:52;6.95;;;4.68;;
42364;SDS011;28498;54.400;18.566;2022-07-23T08:43:23;6.10;;;4.78;;
42364;SDS011;28498;54.400;18.566;2022-07-23T08:45:52;7.18;;;4.80;;
42364;SDS011;28498;54.400;18.566;2022-07-23T08:48:30;6.65;;;4.93;;
42364;SDS011;28498;54.400;18.566;2022-07-23T08:50:59;7.50;;;5.13;;
42364;SDS011;28498;54.400;18.566;2022-07-23T08:53:27;9.85;;;5.03;;
42364;SDS011;28498;54.400;18.566;2022-07-23T08:55:57;6.22;;;4.78;;
42364;SDS011;28498;54.400;18.566;2022-07-23T08:58:25;8.13;;;5.53;;
42364;SDS011;28498;54.400;18.566;2022-07-23T09:00:54;6.40;;;4.82;;
42364;SDS011;28498;54.400;18.566;2022-07-23T09:03:27;8.75;;;4.97;;
42364;SDS011;28498;54.400;18.566;2022-07-23T09:05:56;8.90;;;4.55;;
42364;SDS011;28498;54.400;18.566;2022-07-23T09:08:45;7.07;;;4.85;;
42364;SDS011;28498;54.400;18.566;2022-07-23T09:11:13;8.95;;;4.95;;
42364;SDS011;28498;54.400;18.566;2022-07-23T09:13:47;7.97;;;4.70;;
42364;SDS011;28498;54.400;18.566;2022-07-23T09:16:16;8.52;;;5.05;;
42364;SDS011;28498;54.400;18.566;2022-07-23T09:26:17;8.90;;;4.70;;
42364;SDS011;28498;54.400;18.566;2022-07-23T09:28:55;13.65;;;5.22;;
42364;SDS011;28498;54.400;18.566;2022-07-23T09:35:12;8.75;;;4.90;;
42364;SDS011;28498;54.400;18.566;2022-07-23T09:37:39;8.00;;;5.00;;
42364;SDS011;28498;54.400;18.566;2022-07-23T09:40:07;9.57;;;4.97;;
42364;SDS011;28498;54.400;18.566;2022-07-23T09:42:38;8.73;;;4.43;;
42364;SDS011;28498;54.400;18.566;2022-07-23T09:45:06;10.80;;;4.95;;
42364;SDS011;28498;54.400;18.566;2022-07-23T09:51:25;11.48;;;5.03;;
42364;SDS011;28498;54.400;18.566;2022-07-23T09:57:49;8.90;;;5.10;;
42364;SDS011;28498;54.400;18.566;2022-07-23T10:00:19;7.38;;;4.50;;
42364;SDS011;28498;54.400;18.566;2022-07-23T10:02:46;13.02;;;5.20;;
42364;SDS011;28498;54.400;18.566;2022-07-23T10:05:14;9.85;;;5.38;;
42364;SDS011;28498;54.400;18.566;2022-07-23T10:07:42;9.57;;;5.20;;
42364;SDS011;28498;54.400;18.566;2022-07-23T10:10:16;9.07;;;5.32;;
42364;SDS011;28498;54.400;18.566;2022-07-23T10:16:31;9.27;;;5.45;;
42364;SDS011;28498;54.400;18.566;2022-07-23T10:18:58;12.20;;;5.60;;
42364;SDS011;28498;54.400;18.566;2022-07-23T10:21:34;8.93;;;5.72;;
42364;SDS011;28498;54.400;18.566;2022-07-23T10:24:50;9.32;;;5.70;;
42364;SDS011;28498;54.400;18.566;2022-07-23T10:30:02;10.23;;;5.95;;
42364;SDS011;28498;54.400;18.566;2022-07-23T10:37:49;10.25;;;5.97;;
42364;SDS011;28498;54.400;18.566;2022-07-23T10:40:21;11.73;;;6.18;;
42364;SDS011;28498;54.400;18.566;2022-07-23T10:42:49;12.02;;;5.53;;
42364;SDS011;28498;54.400;18.566;2022-07-23T10:45:32;10.43;;;6.47;;
42364;SDS011;28498;54.400;18.566;2022-07-23T10:51:07;11.48;;;6.45;;
42364;SDS011;28498;54.400;18.566;2022-07-23T10:59:22;12.32;;;7.07;;
42364;SDS011;28498;54.400;18.566;2022-07-23T11:01:50;15.68;;;7.15;;
42364;SDS011;28498;54.400;18.566;2022-07-23T11:04:18;10.35;;;5.78;;
42364;SDS011;28498;54.400;18.566;2022-07-23T11:24:04;10.35;;;6.05;;
42364;SDS011;28498;54.400;18.566;2022-07-23T11:31:59;16.38;;;6.70;;
42364;SDS011;28498;54.400;18.566;2022-07-23T11:40:54;17.77;;;6.57;;
42364;SDS011;28498;54.400;18.566;2022-07-23T11:43:25;9.05;;;7.43;;
42364;SDS011;28498;54.400;18.566;2022-07-23T11:45:53;11.00;;;6.20;;
42364;SDS011;28498;54.400;18.566;2022-07-23T11:48:28;11.43;;;7.07;;
42364;SDS011;28498;54.400;18.566;2022-07-23T11:50:58;12.82;;;7.15;;
42364;SDS011;28498;54.400;18.566;2022-07-23T11:53:29;11.82;;;7.35;;
42364;SDS011;28498;54.400;18.566;2022-07-23T11:56:09;11.57;;;7.63;;
42364;SDS011;28498;54.400;18.566;2022-07-23T11:58:37;13.13;;;8.25;;
42364;SDS011;28498;54.400;18.566;2022-07-23T12:01:05;11.50;;;7.20;;
42364;SDS011;28498;54.400;18.566;2022-07-23T12:03:48;11.43;;;6.95;;
42364;SDS011;28498;54.400;18.566;2022-07-23T12:06:18;12.27;;;8.00;;
42364;SDS011;28498;54.400;18.566;2022-07-23T12:08:45;10.43;;;7.63;;
42364;SDS011;28498;54.400;18.566;2022-07-23T12:11:12;17.23;;;9.23;;
42364;SDS011;28498;54.400;18.566;2022-07-23T12:13:39;16.05;;;8.10;;
42364;SDS011;28498;54.400;18.566;2022-07-23T12:16:06;11.77;;;8.30;;
42364;SDS011;28498;54.400;18.566;2022-07-23T12:18:35;16.00;;;8.88;;
42364;SDS011;28498;54.400;18.566;2022-07-23T12:21:03;17.30;;;10.30;;
42364;SDS011;28498;54.400;18.566;2022-07-23T12:23:31;16.63;;;11.05;;
42364;SDS011;28498;54.400;18.566;2022-07-23T12:26:00;17.08;;;11.75;;
42364;SDS011;28498;54.400;18.566;2022-07-23T12:28:29;20.48;;;12.18;;
42364;SDS011;28498;54.400;18.566;2022-07-23T12:30:59;16.88;;;11.57;;
42364;SDS011;28498;54.400;18.566;2022-07-23T12:33:30;17.08;;;12.35;;
42364;SDS011;28498;54.400;18.566;2022-07-23T12:36:06;17.65;;;11.90;;
42364;SDS011;28498;54.400;18.566;2022-07-23T12:38:46;16.75;;;12.48;;
42364;SDS011;28498;54.400;18.566;2022-07-23T12:41:15;22.45;;;12.52;;
42364;SDS011;28498;54.400;18.566;2022-07-23T12:43:43;19.13;;;13.82;;
42364;SDS011;28498;54.400;18.566;2022-07-23T12:46:18;15.43;;;10.27;;
42364;SDS011;28498;54.400;18.566;2022-07-23T12:53:52;13.93;;;8.75;;
42364;SDS011;28498;54.400;18.566;2022-07-23T12:56:21;13.68;;;8.32;;
42364;SDS011;28498;54.400;18.566;2022-07-23T12:58:55;9.48;;;7.05;;
42364;SDS011;28498;54.400;18.566;2022-07-23T13:01:24;10.23;;;6.82;;
42364;SDS011;28498;54.400;18.566;2022-07-23T13:04:09;9.35;;;6.03;;
42364;SDS011;28498;54.400;18.566;2022-07-23T13:06:43;9.35;;;5.88;;
42364;SDS011;28498;54.400;18.566;2022-07-23T13:09:16;9.95;;;6.63;;
42364;SDS011;28498;54.400;18.566;2022-07-23T13:11:45;9.00;;;5.43;;
42364;SDS011;28498;54.400;18.566;2022-07-23T13:14:14;7.22;;;5.93;;
42364;SDS011;28498;54.400;18.566;2022-07-23T13:16:43;10.40;;;7.65;;
42364;SDS011;28498;54.400;18.566;2022-07-23T13:19:11;7.50;;;5.75;;
42364;SDS011;28498;54.400;18.566;2022-07-23T13:21:40;9.27;;;5.78;;
42364;SDS011;28498;54.400;18.566;2022-07-23T13:24:08;9.65;;;5.00;;
42364;SDS011;28498;54.400;18.566;2022-07-23T13:26:36;7.65;;;4.85;;
42364;SDS011;28498;54.400;18.566;2022-07-23T13:29:04;8.15;;;5.20;;
42364;SDS011;28498;54.400;18.566;2022-07-23T13:31:51;9.07;;;5.68;;
42364;SDS011;28498;54.400;18.566;2022-07-23T13:34:18;6.78;;;5.00;;
42364;SDS011;28498;54.400;18.566;2022-07-23T13:36:45;8.50;;;5.30;;
42364;SDS011;28498;54.400;18.566;2022-07-23T13:39:13;7.60;;;5.65;;
42364;SDS011;28498;54.400;18.566;2022-07-23T13:41:40;6.32;;;4.40;;
42364;SDS011;28498;54.400;18.566;2022-07-23T13:44:15;5.47;;;4.78;;
42364;SDS011;28498;54.400;18.566;2022-07-23T13:46:43;7.72;;;4.93;;
42364;SDS011;28498;54.400;18.566;2022-07-23T13:49:13;7.93;;;4.85;;
42364;SDS011;28498;54.400;18.566;2022-07-23T13:51:41;6.32;;;4.63;;
42364;SDS011;28498;54.400;18.566;2022-07-23T13:54:07;7.57;;;4.55;;
42364;SDS011;28498;54.400;18.566;2022-07-23T13:56:35;6.57;;;4.45;;
42364;SDS011;28498;54.400;18.566;2022-07-23T13:59:02;6.20;;;4.20;;
42364;SDS011;28498;54.400;18.566;2022-07-23T14:01:31;9.43;;;4.60;;
42364;SDS011;28498;54.400;18.566;2022-07-23T14:04:15;7.45;;;4.60;;
42364;SDS011;28498;54.400;18.566;2022-07-23T14:06:43;6.90;;;4.50;;
42364;SDS011;28498;54.400;18.566;2022-07-23T14:09:18;6.70;;;4.38;;
42364;SDS011;28498;54.400;18.566;2022-07-23T14:11:44;5.57;;;3.78;;
42364;SDS011;28498;54.400;18.566;2022-07-23T14:14:11;6.82;;;4.70;;
42364;SDS011;28498;54.400;18.566;2022-07-23T14:16:40;6.45;;;4.43;;
42364;SDS011;28498;54.400;18.566;2022-07-23T14:19:07;5.25;;;4.05;;
42364;SDS011;28498;54.400;18.566;2022-07-23T14:21:35;6.30;;;4.32;;
42364;SDS011;28498;54.400;18.566;2022-07-23T14:24:02;5.78;;;3.60;;
42364;SDS011;28498;54.400;18.566;2022-07-23T14:26:31;7.10;;;4.00;;
42364;SDS011;28498;54.400;18.566;2022-07-23T14:28:59;4.95;;;3.58;;
42364;SDS011;28498;54.400;18.566;2022-07-23T14:31:26;5.13;;;4.00;;
42364;SDS011;28498;54.400;18.566;2022-07-23T14:33:53;5.47;;;4.28;;
42364;SDS011;28498;54.400;18.566;2022-07-23T14:36:20;6.28;;;4.53;;
42364;SDS011;28498;54.400;18.566;2022-07-23T14:38:47;7.82;;;4.80;;
42364;SDS011;28498;54.400;18.566;2022-07-23T14:41:15;5.75;;;4.53;;
42364;SDS011;28498;54.400;18.566;2022-07-23T14:43:42;5.70;;;4.60;;
42364;SDS011;28498;54.400;18.566;2022-07-23T14:46:10;6.72;;;4.70;;
42364;SDS011;28498;54.400;18.566;2022-07-23T14:48:38;6.00;;;4.80;;
42364;SDS011;28498;54.400;18.566;2022-07-23T14:51:06;7.28;;;5.13;;
42364;SDS011;28498;54.400;18.566;2022-07-23T14:53:33;6.32;;;4.60;;
42364;SDS011;28498;54.400;18.566;2022-07-23T14:55:59;6.22;;;4.97;;
42364;SDS011;28498;54.400;18.566;2022-07-23T14:58:27;7.60;;;5.00;;
42364;SDS011;28498;54.400;18.566;2022-07-23T15:00:55;5.88;;;5.00;;
42364;SDS011;28498;54.400;18.566;2022-07-23T15:03:23;7.38;;;4.80;;
42364;SDS011;28498;54.400;18.566;2022-07-23T15:06:04;7.53;;;4.97;;
42364;SDS011;28498;54.400;18.566;2022-07-23T15:08:32;8.45;;;4.70;;
42364;SDS011;28498;54.400;18.566;2022-07-23T15:10:59;7.15;;;5.38;;
42364;SDS011;28498;54.400;18.566;2022-07-23T15:13:26;5.97;;;4.43;;
42364;SDS011;28498;54.400;18.566;2022-07-23T15:15:53;7.68;;;4.60;;
42364;SDS011;28498;54.400;18.566;2022-07-23T15:18:22;5.95;;;4.63;;
42364;SDS011;28498;54.400;18.566;2022-07-23T15:24:36;5.95;;;5.07;;
42364;SDS011;28498;54.400;18.566;2022-07-23T15:27:03;8.20;;;5.53;;
42364;SDS011;28498;54.400;18.566;2022-07-23T15:29:30;7.65;;;4.70;;
42364;SDS011;28498;54.400;18.566;2022-07-23T15:31:57;6.00;;;4.53;;
42364;SDS011;28498;54.400;18.566;2022-07-23T15:34:25;6.68;;;4.90;;
42364;SDS011;28498;54.400;18.566;2022-07-23T15:36:52;6.50;;;4.97;;
42364;SDS011;28498;54.400;18.566;2022-07-23T15:39:19;6.90;;;4.95;;
42364;SDS011;28498;54.400;18.566;2022-07-23T15:41:47;7.00;;;6.03;;
42364;SDS011;28498;54.400;18.566;2022-07-23T15:44:14;7.18;;;5.57;;
42364;SDS011;28498;54.400;18.566;2022-07-23T15:46:55;7.68;;;5.53;;
42364;SDS011;28498;54.400;18.566;2022-07-23T15:49:24;7.43;;;5.32;;